SWR4DM LSZH-EPKK
Flight info
| Callsign | SWR4DM |
|---|---|
| Flight time | 1h 18m |
| Altitude | 37000 |
| Route | DEGES Z2 XEBIX N871 BADVI L725 INPUL DCT LOKVU DCT PADKA |
| Aircraft | A320/M-SDE3FGHIRWY/LB1 |
Departure
| Time | 2026-05-07 17:01 |
|---|---|
| Airport | Zürich Airport (LSZH) |
Arrival
| Time | 2026-05-07 18:20 |
|---|---|
| Airport | Kraków John Paul II International Airport (EPKK) |
| Time | Latitude | Longitude | Altitude | Speed | Heading |
|---|---|---|---|---|---|
| 2026-05-07 16:11 | 47.45424 | 8.55803 | 1411 ft | 0 kts | 186° |
| 2026-05-07 16:11 | 47.45426 | 8.55803 | 1411 ft | 0 kts | 186° |
| 2026-05-07 16:51 | 47.45429 | 8.55804 | 1407 ft | 3 kts | 185° |
| 2026-05-07 16:52 | 47.45447 | 8.55799 | 1408 ft | 3 kts | 186° |
| 2026-05-07 16:52 | 47.45471 | 8.55806 | 1411 ft | 4 kts | 206° |
| 2026-05-07 16:52 | 47.45491 | 8.55830 | 1410 ft | 4 kts | 240° |
| 2026-05-07 16:52 | 47.45499 | 8.55866 | 1409 ft | 4 kts | 267° |
| 2026-05-07 16:53 | 47.45498 | 8.55906 | 1409 ft | 4 kts | 279° |
| 2026-05-07 16:53 | 47.45494 | 8.55943 | 1407 ft | 2 kts | 277° |
| 2026-05-07 16:53 | 47.45494 | 8.55945 | 1407 ft | 1 kts | 276° |
| 2026-05-07 16:56 | 47.45496 | 8.55922 | 1413 ft | 9 kts | 277° |
| 2026-05-07 16:57 | 47.45543 | 8.55840 | 1412 ft | 14 kts | 4° |
| 2026-05-07 16:57 | 47.45631 | 8.55875 | 1413 ft | 14 kts | 56° |
| 2026-05-07 16:57 | 47.45627 | 8.56021 | 1410 ft | 13 kts | 96° |
| 2026-05-07 16:57 | 47.45617 | 8.56156 | 1417 ft | 16 kts | 96° |
| 2026-05-07 16:58 | 47.45604 | 8.56345 | 1420 ft | 17 kts | 95° |
| 2026-05-07 16:58 | 47.45592 | 8.56517 | 1415 ft | 16 kts | 96° |
| 2026-05-07 16:58 | 47.45582 | 8.56656 | 1418 ft | 11 kts | 95° |
| 2026-05-07 16:58 | 47.45577 | 8.56728 | 1419 ft | 5 kts | 95° |
| 2026-05-07 16:59 | 47.45574 | 8.56771 | 1423 ft | 5 kts | 97° |
| 2026-05-07 16:59 | 47.45567 | 8.56856 | 1420 ft | 15 kts | 96° |
| 2026-05-07 16:59 | 47.45575 | 8.56995 | 1422 ft | 12 kts | 48° |
| 2026-05-07 16:59 | 47.45639 | 8.57023 | 1425 ft | 9 kts | 4° |
| 2026-05-07 17:00 | 47.45664 | 8.56986 | 1424 ft | 4 kts | 277° |
| 2026-05-07 17:00 | 47.45664 | 8.56984 | 1424 ft | 0 kts | 277° |
| 2026-05-07 17:00 | 47.45679 | 8.56795 | 1421 ft | 56 kts | 276° |
| 2026-05-07 17:00 | 47.45745 | 8.55865 | 1413 ft | 123 kts | 276° |
| 2026-05-07 17:01 | 47.45855 | 8.54365 | 1586 ft | 154 kts | 278° |
| 2026-05-07 17:01 | 47.45951 | 8.52802 | 2234 ft | 155 kts | 277° |
| 2026-05-07 17:01 | 47.46060 | 8.51201 | 2895 ft | 157 kts | 277° |
| 2026-05-07 17:01 | 47.46176 | 8.49595 | 3499 ft | 158 kts | 277° |
| 2026-05-07 17:02 | 47.46132 | 8.47876 | 3692 ft | 183 kts | 245° |
| 2026-05-07 17:02 | 47.45351 | 8.46267 | 3952 ft | 206 kts | 223° |
| 2026-05-07 17:02 | 47.43997 | 8.45368 | 4307 ft | 225 kts | 185° |
| 2026-05-07 17:02 | 47.42475 | 8.45936 | 4872 ft | 232 kts | 143° |
| 2026-05-07 17:03 | 47.41535 | 8.47826 | 5588 ft | 234 kts | 105° |
| 2026-05-07 17:03 | 47.41392 | 8.50221 | 6306 ft | 235 kts | 90° |
| 2026-05-07 17:03 | 47.41393 | 8.52651 | 6970 ft | 239 kts | 90° |
| 2026-05-07 17:03 | 47.41409 | 8.55099 | 7588 ft | 245 kts | 90° |
| 2026-05-07 17:04 | 47.41426 | 8.57757 | 7907 ft | 268 kts | 90° |
| 2026-05-07 17:04 | 47.41438 | 8.60583 | 8304 ft | 286 kts | 90° |
| 2026-05-07 17:04 | 47.41444 | 8.63566 | 8990 ft | 293 kts | 91° |
| 2026-05-07 17:04 | 47.41446 | 8.66609 | 9758 ft | 298 kts | 91° |
| 2026-05-07 17:05 | 47.41442 | 8.69704 | 10399 ft | 307 kts | 91° |
| 2026-05-07 17:05 | 47.41437 | 8.72983 | 10625 ft | 330 kts | 91° |
| 2026-05-07 17:05 | 47.41431 | 8.76487 | 10851 ft | 351 kts | 91° |
| 2026-05-07 17:05 | 47.41424 | 8.80128 | 11410 ft | 359 kts | 91° |
| 2026-05-07 17:06 | 47.41417 | 8.83844 | 12091 ft | 364 kts | 91° |
| 2026-05-07 17:06 | 47.41410 | 8.87595 | 12780 ft | 368 kts | 91° |
| 2026-05-07 17:06 | 47.41400 | 8.91387 | 13476 ft | 372 kts | 91° |
| 2026-05-07 17:06 | 47.41392 | 8.93982 | 13920 ft | 375 kts | 91° |
| 2026-05-07 17:07 | 47.41375 | 8.97794 | 14511 ft | 378 kts | 91° |
| 2026-05-07 17:07 | 47.41354 | 9.01692 | 15122 ft | 381 kts | 91° |
| 2026-05-07 17:07 | 47.41331 | 9.05623 | 15728 ft | 384 kts | 91° |
| 2026-05-07 17:07 | 47.41306 | 9.09584 | 16332 ft | 387 kts | 91° |
| 2026-05-07 17:08 | 47.41282 | 9.13572 | 16942 ft | 390 kts | 91° |
| 2026-05-07 17:08 | 47.41260 | 9.17598 | 17517 ft | 394 kts | 90° |
| 2026-05-07 17:08 | 47.41487 | 9.21637 | 18120 ft | 397 kts | 80° |
| 2026-05-07 17:08 | 47.42075 | 9.25631 | 18674 ft | 399 kts | 77° |
| 2026-05-07 17:09 | 47.42688 | 9.29637 | 19205 ft | 402 kts | 77° |
| 2026-05-07 17:09 | 47.43303 | 9.33676 | 19728 ft | 405 kts | 77° |
| 2026-05-07 17:09 | 47.43922 | 9.37748 | 20240 ft | 408 kts | 77° |
| 2026-05-07 17:09 | 47.44544 | 9.41857 | 20769 ft | 411 kts | 77° |
| 2026-05-07 17:10 | 47.45166 | 9.45979 | 21285 ft | 413 kts | 77° |
| 2026-05-07 17:10 | 47.45790 | 9.50142 | 21791 ft | 416 kts | 77° |
| 2026-05-07 17:10 | 47.46418 | 9.54339 | 22279 ft | 419 kts | 77° |
| 2026-05-07 17:10 | 47.46973 | 9.58586 | 22760 ft | 422 kts | 83° |
| 2026-05-07 17:11 | 47.47111 | 9.62940 | 23202 ft | 425 kts | 92° |
| 2026-05-07 17:11 | 47.46890 | 9.67314 | 23626 ft | 429 kts | 95° |
| 2026-05-07 17:11 | 47.46646 | 9.71710 | 24128 ft | 425 kts | 95° |
| 2026-05-07 17:11 | 47.46406 | 9.76070 | 24513 ft | 430 kts | 95° |
| 2026-05-07 17:12 | 47.46161 | 9.80518 | 24751 ft | 436 kts | 95° |
| 2026-05-07 17:12 | 47.45913 | 9.84998 | 25060 ft | 440 kts | 95° |
| 2026-05-07 17:12 | 47.45662 | 9.89524 | 25393 ft | 442 kts | 95° |
| 2026-05-07 17:12 | 47.45407 | 9.94060 | 25731 ft | 445 kts | 95° |
| 2026-05-07 17:13 | 47.45146 | 9.98628 | 26062 ft | 447 kts | 95° |
| 2026-05-07 17:13 | 47.44884 | 10.03213 | 26389 ft | 450 kts | 95° |
| 2026-05-07 17:13 | 47.44617 | 10.07833 | 26717 ft | 452 kts | 95° |
| 2026-05-07 17:13 | 47.44345 | 10.12464 | 27034 ft | 454 kts | 95° |
| 2026-05-07 17:14 | 47.44065 | 10.17125 | 27336 ft | 457 kts | 96° |
| 2026-05-07 17:14 | 47.43542 | 10.21767 | 27644 ft | 459 kts | 102° |
| 2026-05-07 17:14 | 47.42919 | 10.26397 | 27932 ft | 461 kts | 102° |
| 2026-05-07 17:14 | 47.42293 | 10.31047 | 28231 ft | 463 kts | 102° |
| 2026-05-07 17:15 | 47.41660 | 10.35720 | 28531 ft | 465 kts | 102° |
| 2026-05-07 17:15 | 47.41045 | 10.40422 | 28816 ft | 467 kts | 98° |
| 2026-05-07 17:15 | 47.40784 | 10.45210 | 29104 ft | 469 kts | 90° |
| 2026-05-07 17:15 | 47.41009 | 10.50025 | 29354 ft | 472 kts | 81° |
| 2026-05-07 17:16 | 47.41714 | 10.54756 | 29578 ft | 473 kts | 72° |
| 2026-05-07 17:16 | 47.42808 | 10.59338 | 29789 ft | 475 kts | 69° |
| 2026-05-07 17:16 | 47.43942 | 10.63926 | 30021 ft | 476 kts | 69° |
| 2026-05-07 17:16 | 47.45071 | 10.68540 | 30228 ft | 478 kts | 69° |
| 2026-05-07 17:17 | 47.46196 | 10.73177 | 30446 ft | 479 kts | 69° |
| 2026-05-07 17:17 | 47.47318 | 10.77820 | 30713 ft | 479 kts | 69° |
| 2026-05-07 17:17 | 47.48426 | 10.82407 | 30937 ft | 480 kts | 69° |
| 2026-05-07 17:17 | 47.49563 | 10.87116 | 31173 ft | 480 kts | 69° |
| 2026-05-07 17:18 | 47.50684 | 10.91761 | 31468 ft | 479 kts | 69° |
| 2026-05-07 17:18 | 47.51803 | 10.96387 | 31704 ft | 479 kts | 69° |
| 2026-05-07 17:18 | 47.52923 | 11.01030 | 31932 ft | 480 kts | 69° |
| 2026-05-07 17:18 | 47.54044 | 11.05687 | 32176 ft | 480 kts | 69° |
| 2026-05-07 17:19 | 47.55178 | 11.10408 | 32392 ft | 481 kts | 69° |
| 2026-05-07 17:19 | 47.56283 | 11.15019 | 32627 ft | 481 kts | 69° |
| 2026-05-07 17:19 | 47.57404 | 11.19703 | 32869 ft | 482 kts | 69° |
| 2026-05-07 17:19 | 47.58509 | 11.24324 | 33108 ft | 483 kts | 69° |
| 2026-05-07 17:20 | 47.59627 | 11.29009 | 33377 ft | 483 kts | 69° |
| 2026-05-07 17:20 | 47.60746 | 11.33720 | 33588 ft | 484 kts | 69° |
| 2026-05-07 17:20 | 47.61875 | 11.38492 | 33804 ft | 485 kts | 69° |
| 2026-05-07 17:20 | 47.62966 | 11.43220 | 34007 ft | 486 kts | 71° |
| 2026-05-07 17:21 | 47.63994 | 11.48006 | 34191 ft | 487 kts | 72° |
| 2026-05-07 17:21 | 47.64967 | 11.52818 | 34407 ft | 487 kts | 73° |
| 2026-05-07 17:21 | 47.65911 | 11.57638 | 34637 ft | 486 kts | 73° |
| 2026-05-07 17:21 | 47.66851 | 11.62450 | 34857 ft | 486 kts | 73° |
| 2026-05-07 17:22 | 47.67802 | 11.67265 | 35078 ft | 485 kts | 73° |
| 2026-05-07 17:22 | 47.68766 | 11.72072 | 35277 ft | 485 kts | 73° |
| 2026-05-07 17:22 | 47.69724 | 11.76808 | 35458 ft | 485 kts | 72° |
| 2026-05-07 17:22 | 47.70693 | 11.81604 | 35646 ft | 485 kts | 73° |
| 2026-05-07 17:23 | 47.71635 | 11.86424 | 35816 ft | 485 kts | 74° |
| 2026-05-07 17:23 | 47.72557 | 11.91306 | 35972 ft | 486 kts | 74° |
| 2026-05-07 17:23 | 47.73423 | 11.96087 | 36117 ft | 486 kts | 76° |
| 2026-05-07 17:23 | 47.74197 | 12.00976 | 36298 ft | 485 kts | 78° |
| 2026-05-07 17:24 | 47.74878 | 12.05887 | 36444 ft | 485 kts | 79° |
| 2026-05-07 17:24 | 47.75520 | 12.10880 | 36579 ft | 485 kts | 79° |
| 2026-05-07 17:24 | 47.76143 | 12.15797 | 36730 ft | 485 kts | 79° |
| 2026-05-07 17:24 | 47.76772 | 12.20663 | 36893 ft | 485 kts | 79° |
| 2026-05-07 17:25 | 47.77430 | 12.25573 | 37019 ft | 485 kts | 79° |
| 2026-05-07 17:25 | 47.78106 | 12.30496 | 37045 ft | 485 kts | 78° |
| 2026-05-07 17:25 | 47.79468 | 12.40306 | 37036 ft | 484 kts | 78° |
| 2026-05-07 17:26 | 47.80821 | 12.50106 | 37037 ft | 484 kts | 79° |
| 2026-05-07 17:26 | 47.82149 | 12.59916 | 37037 ft | 484 kts | 79° |
| 2026-05-07 17:27 | 47.83461 | 12.69744 | 37039 ft | 484 kts | 78° |
| 2026-05-07 17:27 | 47.85771 | 12.79102 | 37032 ft | 483 kts | 61° |
| 2026-05-07 17:28 | 47.88877 | 12.87840 | 37035 ft | 484 kts | 62° |
| 2026-05-07 17:28 | 47.92013 | 12.96725 | 37055 ft | 484 kts | 62° |
| 2026-05-07 17:29 | 47.95120 | 13.05568 | 37055 ft | 484 kts | 62° |
| 2026-05-07 17:29 | 47.98235 | 13.14480 | 37055 ft | 485 kts | 62° |
| 2026-05-07 17:30 | 48.01347 | 13.23406 | 37051 ft | 484 kts | 62° |
| 2026-05-07 17:30 | 48.04453 | 13.32347 | 37041 ft | 485 kts | 62° |
| 2026-05-07 17:31 | 48.07553 | 13.41300 | 37049 ft | 485 kts | 62° |
| 2026-05-07 17:31 | 48.10648 | 13.50251 | 37051 ft | 485 kts | 62° |
| 2026-05-07 17:32 | 48.13741 | 13.59234 | 37049 ft | 485 kts | 63° |
| 2026-05-07 17:32 | 48.16292 | 13.66689 | 37049 ft | 485 kts | 63° |
| 2026-05-07 17:33 | 48.19895 | 13.77232 | 37049 ft | 485 kts | 63° |
| 2026-05-07 17:33 | 48.22945 | 13.86187 | 37035 ft | 485 kts | 63° |
| 2026-05-07 17:34 | 48.26027 | 13.95282 | 37048 ft | 485 kts | 63° |
| 2026-05-07 17:34 | 48.29057 | 14.04256 | 37046 ft | 485 kts | 63° |
| 2026-05-07 17:35 | 48.32109 | 14.13308 | 37046 ft | 485 kts | 63° |
| 2026-05-07 17:35 | 48.35154 | 14.22358 | 37046 ft | 485 kts | 63° |
| 2026-05-07 17:36 | 48.38194 | 14.31439 | 37044 ft | 485 kts | 63° |
| 2026-05-07 17:36 | 48.41213 | 14.40512 | 37037 ft | 485 kts | 64° |
| 2026-05-07 17:37 | 48.44229 | 14.49595 | 37037 ft | 484 kts | 64° |
| 2026-05-07 17:37 | 48.47234 | 14.58684 | 37035 ft | 484 kts | 64° |
| 2026-05-07 17:38 | 48.50229 | 14.67766 | 37025 ft | 484 kts | 64° |
| 2026-05-07 17:38 | 48.53218 | 14.76857 | 37024 ft | 483 kts | 64° |
| 2026-05-07 17:39 | 48.56202 | 14.85945 | 37036 ft | 483 kts | 64° |
| 2026-05-07 17:39 | 48.59176 | 14.95051 | 37011 ft | 484 kts | 65° |
| 2026-05-07 17:40 | 48.62140 | 15.04164 | 37012 ft | 484 kts | 65° |
| 2026-05-07 17:40 | 48.65103 | 15.13318 | 37003 ft | 484 kts | 65° |
| 2026-05-07 17:41 | 48.68053 | 15.22469 | 37002 ft | 484 kts | 65° |
| 2026-05-07 17:41 | 48.70998 | 15.31630 | 36999 ft | 484 kts | 65° |
| 2026-05-07 17:42 | 48.73942 | 15.40809 | 37000 ft | 484 kts | 65° |
| 2026-05-07 17:42 | 48.76876 | 15.49984 | 36969 ft | 484 kts | 65° |
| 2026-05-07 17:43 | 48.79781 | 15.59118 | 36962 ft | 485 kts | 65° |
| 2026-05-07 17:43 | 48.82698 | 15.68344 | 36965 ft | 486 kts | 65° |
| 2026-05-07 17:44 | 48.85624 | 15.77613 | 36963 ft | 486 kts | 66° |
| 2026-05-07 17:44 | 48.88869 | 15.86607 | 36978 ft | 487 kts | 56° |
| 2026-05-07 17:45 | 48.92067 | 15.93657 | 36981 ft | 487 kts | 56° |
| 2026-05-07 17:45 | 48.95904 | 16.02157 | 36960 ft | 487 kts | 56° |
| 2026-05-07 17:46 | 48.99731 | 16.10681 | 36978 ft | 487 kts | 57° |
| 2026-05-07 17:46 | 49.03544 | 16.19225 | 36984 ft | 487 kts | 57° |
| 2026-05-07 17:47 | 49.07355 | 16.27764 | 36994 ft | 487 kts | 57° |
| 2026-05-07 17:47 | 49.11170 | 16.36326 | 36990 ft | 487 kts | 57° |
| 2026-05-07 17:48 | 49.14962 | 16.44880 | 36988 ft | 486 kts | 57° |
| 2026-05-07 17:48 | 49.18751 | 16.53459 | 36991 ft | 486 kts | 57° |
| 2026-05-07 17:49 | 49.22528 | 16.62041 | 36953 ft | 486 kts | 57° |
| 2026-05-07 17:49 | 49.26296 | 16.70625 | 36955 ft | 486 kts | 58° |
| 2026-05-07 17:50 | 49.30067 | 16.79236 | 36960 ft | 487 kts | 58° |
| 2026-05-07 17:50 | 49.33802 | 16.87807 | 36962 ft | 487 kts | 58° |
| 2026-05-07 17:51 | 49.37553 | 16.96448 | 36963 ft | 487 kts | 58° |
| 2026-05-07 17:51 | 49.41303 | 17.05101 | 36964 ft | 487 kts | 58° |
| 2026-05-07 17:52 | 49.44998 | 17.13639 | 36751 ft | 487 kts | 58° |
| 2026-05-07 17:52 | 49.46865 | 17.17968 | 36304 ft | 488 kts | 58° |
| 2026-05-07 17:52 | 49.48771 | 17.22402 | 35363 ft | 493 kts | 59° |
| 2026-05-07 17:53 | 49.50666 | 17.26824 | 34403 ft | 496 kts | 59° |
| 2026-05-07 17:53 | 49.52569 | 17.31277 | 33393 ft | 500 kts | 60° |
| 2026-05-07 17:53 | 49.54460 | 17.35712 | 32347 ft | 503 kts | 60° |
| 2026-05-07 17:53 | 49.56384 | 17.40214 | 31410 ft | 503 kts | 60° |
| 2026-05-07 17:54 | 49.58314 | 17.44726 | 30856 ft | 495 kts | 61° |
| 2026-05-07 17:54 | 49.60205 | 17.49147 | 30159 ft | 492 kts | 61° |
| 2026-05-07 17:54 | 49.62077 | 17.53542 | 29432 ft | 488 kts | 61° |
| 2026-05-07 17:54 | 49.63929 | 17.57896 | 28792 ft | 482 kts | 61° |
| 2026-05-07 17:55 | 49.65753 | 17.62196 | 28150 ft | 477 kts | 61° |
| 2026-05-07 17:55 | 49.67558 | 17.66465 | 27511 ft | 473 kts | 61° |
| 2026-05-07 17:55 | 49.69344 | 17.70700 | 26887 ft | 469 kts | 61° |
| 2026-05-07 17:55 | 49.71115 | 17.74907 | 26258 ft | 465 kts | 61° |
| 2026-05-07 17:56 | 49.72849 | 17.79027 | 25651 ft | 462 kts | 61° |
| 2026-05-07 17:56 | 49.74592 | 17.83172 | 25052 ft | 458 kts | 61° |
| 2026-05-07 17:56 | 49.76322 | 17.87292 | 24470 ft | 455 kts | 61° |
| 2026-05-07 17:56 | 49.78038 | 17.91383 | 23900 ft | 452 kts | 61° |
| 2026-05-07 17:57 | 49.79740 | 17.95449 | 23326 ft | 448 kts | 61° |
| 2026-05-07 17:57 | 49.80882 | 17.98177 | 22937 ft | 445 kts | 60° |
| 2026-05-07 17:57 | 49.83088 | 18.03463 | 22265 ft | 438 kts | 60° |
| 2026-05-07 17:57 | 49.84730 | 18.07411 | 21753 ft | 433 kts | 60° |
| 2026-05-07 17:58 | 49.86374 | 18.11373 | 21238 ft | 430 kts | 60° |
| 2026-05-07 17:58 | 49.87980 | 18.15250 | 20731 ft | 426 kts | 59° |
| 2026-05-07 17:58 | 49.89579 | 18.19106 | 20214 ft | 423 kts | 59° |
| 2026-05-07 17:58 | 49.91157 | 18.22942 | 19691 ft | 421 kts | 61° |
| 2026-05-07 17:59 | 49.92390 | 18.27022 | 19161 ft | 416 kts | 73° |
| 2026-05-07 17:59 | 49.93057 | 18.31349 | 18702 ft | 410 kts | 84° |
| 2026-05-07 17:59 | 49.93161 | 18.35702 | 18453 ft | 397 kts | 95° |
| 2026-05-07 17:59 | 49.93031 | 18.39937 | 18142 ft | 389 kts | 95° |
| 2026-05-07 18:00 | 49.92909 | 18.44088 | 17833 ft | 382 kts | 94° |
| 2026-05-07 18:00 | 49.92791 | 18.48189 | 17523 ft | 378 kts | 95° |
| 2026-05-07 18:00 | 49.92671 | 18.52259 | 17257 ft | 375 kts | 95° |
| 2026-05-07 18:00 | 49.92547 | 18.56285 | 16971 ft | 373 kts | 95° |
| 2026-05-07 18:01 | 49.92417 | 18.60319 | 16691 ft | 381 kts | 95° |
| 2026-05-07 18:01 | 49.92277 | 18.64487 | 16386 ft | 390 kts | 95° |
| 2026-05-07 18:01 | 49.92137 | 18.68693 | 16093 ft | 391 kts | 95° |
| 2026-05-07 18:01 | 49.91998 | 18.72909 | 15795 ft | 389 kts | 95° |
| 2026-05-07 18:02 | 49.91712 | 18.81254 | 15206 ft | 386 kts | 96° |
| 2026-05-07 18:02 | 49.91519 | 18.85338 | 14916 ft | 384 kts | 97° |
| 2026-05-07 18:02 | 49.91287 | 18.89456 | 14626 ft | 381 kts | 97° |
| 2026-05-07 18:03 | 49.91038 | 18.93561 | 14423 ft | 371 kts | 97° |
| 2026-05-07 18:03 | 49.90801 | 18.97418 | 14283 ft | 358 kts | 98° |
| 2026-05-07 18:03 | 49.90573 | 19.01206 | 14160 ft | 347 kts | 98° |
| 2026-05-07 18:03 | 49.90357 | 19.04918 | 14045 ft | 336 kts | 98° |
| 2026-05-07 18:04 | 49.90155 | 19.08467 | 13923 ft | 326 kts | 98° |
| 2026-05-07 18:04 | 49.89960 | 19.11895 | 13629 ft | 322 kts | 98° |
| 2026-05-07 18:04 | 49.89759 | 19.15342 | 13292 ft | 319 kts | 98° |
| 2026-05-07 18:04 | 49.89558 | 19.18756 | 12978 ft | 316 kts | 98° |
| 2026-05-07 18:05 | 49.89361 | 19.22110 | 12747 ft | 313 kts | 98° |
| 2026-05-07 18:05 | 49.89193 | 19.25486 | 12517 ft | 312 kts | 92° |
| 2026-05-07 18:05 | 49.89423 | 19.28844 | 12290 ft | 314 kts | 78° |
| 2026-05-07 18:05 | 49.90137 | 19.32039 | 12052 ft | 314 kts | 67° |
| 2026-05-07 18:06 | 49.91014 | 19.35137 | 11825 ft | 313 kts | 67° |
| 2026-05-07 18:06 | 49.91882 | 19.38225 | 11598 ft | 312 kts | 67° |
| 2026-05-07 18:06 | 49.92744 | 19.41304 | 11369 ft | 310 kts | 67° |
| 2026-05-07 18:06 | 49.93599 | 19.44377 | 11146 ft | 310 kts | 68° |
| 2026-05-07 18:07 | 49.94449 | 19.47436 | 10936 ft | 306 kts | 68° |
| 2026-05-07 18:07 | 49.95066 | 19.50532 | 10754 ft | 297 kts | 79° |
| 2026-05-07 18:07 | 49.95490 | 19.53655 | 10490 ft | 294 kts | 79° |
| 2026-05-07 18:07 | 49.95904 | 19.56746 | 10273 ft | 293 kts | 79° |
| 2026-05-07 18:08 | 49.96319 | 19.59833 | 10067 ft | 291 kts | 79° |
| 2026-05-07 18:08 | 49.96732 | 19.62917 | 9964 ft | 290 kts | 79° |
| 2026-05-07 18:08 | 49.97142 | 19.65964 | 9976 ft | 291 kts | 79° |
| 2026-05-07 18:08 | 49.97552 | 19.69004 | 9976 ft | 291 kts | 79° |
| 2026-05-07 18:09 | 49.97967 | 19.72084 | 9977 ft | 291 kts | 79° |
| 2026-05-07 18:09 | 49.98389 | 19.75196 | 9976 ft | 291 kts | 79° |
| 2026-05-07 18:09 | 49.98808 | 19.78277 | 9979 ft | 292 kts | 79° |
| 2026-05-07 18:09 | 49.99229 | 19.81369 | 9979 ft | 297 kts | 79° |
| 2026-05-07 18:10 | 49.99661 | 19.84546 | 9523 ft | 300 kts | 79° |
| 2026-05-07 18:10 | 50.00085 | 19.87683 | 9039 ft | 291 kts | 79° |
| 2026-05-07 18:10 | 50.00494 | 19.90717 | 8511 ft | 284 kts | 79° |
| 2026-05-07 18:10 | 50.00898 | 19.93714 | 7915 ft | 281 kts | 78° |
| 2026-05-07 18:11 | 50.01270 | 19.96459 | 7359 ft | 279 kts | 78° |
| 2026-05-07 18:11 | 50.01534 | 19.98410 | 7005 ft | 280 kts | 78° |
| 2026-05-07 18:11 | 50.02067 | 20.02348 | 6537 ft | 276 kts | 78° |
| 2026-05-07 18:11 | 50.02461 | 20.05258 | 6243 ft | 273 kts | 78° |
| 2026-05-07 18:12 | 50.02853 | 20.08160 | 6115 ft | 275 kts | 78° |
| 2026-05-07 18:12 | 50.03246 | 20.11073 | 5982 ft | 275 kts | 78° |
| 2026-05-07 18:12 | 50.03642 | 20.13986 | 5862 ft | 276 kts | 78° |
| 2026-05-07 18:12 | 50.04044 | 20.16958 | 5731 ft | 283 kts | 78° |
| 2026-05-07 18:13 | 50.04474 | 20.19948 | 5610 ft | 283 kts | 71° |
| 2026-05-07 18:13 | 50.05510 | 20.22460 | 5475 ft | 276 kts | 37° |
| 2026-05-07 18:13 | 50.07180 | 20.23698 | 5304 ft | 268 kts | 10° |
| 2026-05-07 18:13 | 50.08984 | 20.23817 | 5209 ft | 258 kts | 347° |
| 2026-05-07 18:14 | 50.10644 | 20.22873 | 5154 ft | 253 kts | 325° |
| 2026-05-07 18:14 | 50.11918 | 20.21018 | 5059 ft | 250 kts | 303° |
| 2026-05-07 18:14 | 50.12614 | 20.18609 | 4865 ft | 247 kts | 281° |
| 2026-05-07 18:14 | 50.12682 | 20.15984 | 4639 ft | 246 kts | 262° |
| 2026-05-07 18:15 | 50.12421 | 20.13359 | 4391 ft | 246 kts | 261° |
| 2026-05-07 18:15 | 50.12158 | 20.10734 | 4156 ft | 245 kts | 261° |
| 2026-05-07 18:15 | 50.11884 | 20.08108 | 3897 ft | 244 kts | 260° |
| 2026-05-07 18:15 | 50.11552 | 20.05522 | 3698 ft | 244 kts | 258° |
| 2026-05-07 18:16 | 50.11195 | 20.02945 | 3483 ft | 239 kts | 258° |
| 2026-05-07 18:16 | 50.10851 | 20.00516 | 3280 ft | 222 kts | 258° |
| 2026-05-07 18:16 | 50.10529 | 19.98255 | 3084 ft | 205 kts | 259° |
| 2026-05-07 18:16 | 50.10235 | 19.96172 | 2917 ft | 188 kts | 258° |
| 2026-05-07 18:17 | 50.09970 | 19.94280 | 2634 ft | 171 kts | 259° |
| 2026-05-07 18:17 | 50.09725 | 19.92522 | 2428 ft | 156 kts | 259° |
| 2026-05-07 18:17 | 50.09504 | 19.90939 | 2210 ft | 145 kts | 259° |
| 2026-05-07 18:17 | 50.09294 | 19.89424 | 2010 ft | 142 kts | 259° |
| 2026-05-07 18:18 | 50.09097 | 19.87918 | 1833 ft | 143 kts | 259° |
| 2026-05-07 18:18 | 50.08904 | 19.86395 | 1677 ft | 144 kts | 257° |
| 2026-05-07 18:18 | 50.08682 | 19.84882 | 1486 ft | 143 kts | 256° |
| 2026-05-07 18:18 | 50.08472 | 19.83370 | 1286 ft | 143 kts | 256° |
| 2026-05-07 18:19 | 50.08251 | 19.81870 | 1099 ft | 142 kts | 255° |
| 2026-05-07 18:19 | 50.08042 | 19.80394 | 897 ft | 141 kts | 255° |
| 2026-05-07 18:19 | 50.07839 | 19.78959 | 801 ft | 120 kts | 258° |
| 2026-05-07 18:19 | 50.07725 | 19.78135 | 799 ft | 51 kts | 257° |
| 2026-05-07 18:20 | 50.07652 | 19.77616 | 799 ft | 48 kts | 258° |
| 2026-05-07 18:20 | 50.07601 | 19.77241 | 802 ft | 29 kts | 258° |
| 2026-05-07 18:20 | 50.07560 | 19.76940 | 802 ft | 26 kts | 258° |
| 2026-05-07 18:20 | 50.07475 | 19.76846 | 801 ft | 17 kts | 169° |
| 2026-05-07 18:21 | 50.07363 | 19.76884 | 800 ft | 14 kts | 167° |
| 2026-05-07 18:21 | 50.07312 | 19.76907 | 800 ft | 6 kts | 143° |
| 2026-05-07 18:21 | 50.07310 | 19.76984 | 800 ft | 11 kts | 77° |
| 2026-05-07 18:21 | 50.07327 | 19.77100 | 800 ft | 10 kts | 77° |
| 2026-05-07 18:22 | 50.07340 | 19.77194 | 800 ft | 12 kts | 78° |
| 2026-05-07 18:22 | 50.07344 | 19.77222 | 800 ft | 15 kts | 78° |
| 2026-05-07 18:22 | 50.07392 | 19.77576 | 800 ft | 22 kts | 77° |
| 2026-05-07 18:22 | 50.07426 | 19.77816 | 800 ft | 24 kts | 78° |
| 2026-05-07 18:23 | 50.07461 | 19.78067 | 800 ft | 25 kts | 78° |
| 2026-05-07 18:23 | 50.07496 | 19.78321 | 800 ft | 24 kts | 78° |
| 2026-05-07 18:23 | 50.07531 | 19.78574 | 800 ft | 24 kts | 77° |
| 2026-05-07 18:23 | 50.07567 | 19.78821 | 800 ft | 22 kts | 78° |
| 2026-05-07 18:24 | 50.07587 | 19.78975 | 800 ft | 23 kts | 78° |
| 2026-05-07 18:24 | 50.07621 | 19.79213 | 800 ft | 21 kts | 78° |
| 2026-05-07 18:24 | 50.07648 | 19.79399 | 800 ft | 15 kts | 77° |
| 2026-05-07 18:24 | 50.07660 | 19.79489 | 800 ft | 0 kts | 78° |
| 2026-05-07 18:27 | 50.07662 | 19.79506 | 800 ft | 1 kts | 78° |
| 2026-05-07 18:27 | 50.07666 | 19.79532 | 800 ft | 4 kts | 78° |
| 2026-05-07 18:27 | 50.07672 | 19.79583 | 800 ft | 6 kts | 78° |
| 2026-05-07 18:28 | 50.07677 | 19.79661 | 800 ft | 4 kts | 102° |
| 2026-05-07 18:28 | 50.07642 | 19.79701 | 800 ft | 7 kts | 170° |
| 2026-05-07 18:28 | 50.07576 | 19.79722 | 800 ft | 13 kts | 168° |
| 2026-05-07 18:28 | 50.07476 | 19.79756 | 800 ft | 16 kts | 167° |
| 2026-05-07 18:29 | 50.07410 | 19.79778 | 800 ft | 7 kts | 168° |
| 2026-05-07 18:29 | 50.07361 | 19.79759 | 800 ft | 9 kts | 216° |
| 2026-05-07 18:29 | 50.07306 | 19.79767 | 800 ft | 8 kts | 167° |
| 2026-05-07 18:29 | 50.07272 | 19.79779 | 800 ft | 2 kts | 167° |
| 2026-05-07 18:30 | 50.07270 | 19.79780 | 800 ft | 0 kts | 167° |